sensor_id;sensor_type;location;lat;lon;timestamp;pressure;altitude;pressure_sealevel;temperature;humidity
25610;BME280;13479;49.044;8.716;2022-09-27T04:15:27;97363.53;;;11.74;83.19
25610;BME280;13479;49.044;8.716;2022-09-27T04:17:52;97386.47;;;11.76;82.17
25610;BME280;13479;49.044;8.716;2022-09-27T04:20:17;97376.63;;;11.76;82.67
25610;BME280;13479;49.044;8.716;2022-09-27T04:22:43;97383.97;;;11.74;82.53
25610;BME280;13479;49.044;8.716;2022-09-27T04:25:10;97387.09;;;11.78;81.74
25610;BME280;13479;49.044;8.716;2022-09-27T04:27:36;97376.63;;;11.76;81.90
25610;BME280;13479;49.044;8.716;2022-09-27T04:30:03;97377.44;;;11.77;82.22
25610;BME280;13479;49.044;8.716;2022-09-27T04:32:28;97351.25;;;11.73;82.45
25610;BME280;13479;49.044;8.716;2022-09-27T04:34:54;97370.03;;;11.72;81.96
25610;BME280;13479;49.044;8.716;2022-09-27T04:37:37;97382.19;;;11.66;81.74
25610;BME280;13479;49.044;8.716;2022-09-27T04:40:03;97392.84;;;11.66;81.28
25610;BME280;13479;49.044;8.716;2022-09-27T04:42:29;97386.25;;;11.62;81.36
25610;BME280;13479;49.044;8.716;2022-09-27T04:44:54;97375.50;;;11.55;81.47
25610;BME280;13479;49.044;8.716;2022-09-27T04:47:19;97397.22;;;11.59;80.58
25610;BME280;13479;49.044;8.716;2022-09-27T04:49:46;97366.75;;;11.47;81.48
25610;BME280;13479;49.044;8.716;2022-09-27T04:52:12;97375.38;;;11.49;81.29
25610;BME280;13479;49.044;8.716;2022-09-27T04:54:39;97383.28;;;11.57;80.98
25610;BME280;13479;49.044;8.716;2022-09-27T04:57:05;97398.41;;;11.56;80.85
25610;BME280;13479;49.044;8.716;2022-09-27T04:59:30;97366.41;;;11.50;81.20
25610;BME280;13479;49.044;8.716;2022-09-27T05:01:56;97381.34;;;11.51;81.12
25610;BME280;13479;49.044;8.716;2022-09-27T05:04:24;97380.69;;;11.49;81.28
25610;BME280;13479;49.044;8.716;2022-09-27T05:06:49;97368.28;;;11.41;81.83
25610;BME280;13479;49.044;8.716;2022-09-27T05:09:14;97365.47;;;11.42;82.44
25610;BME280;13479;49.044;8.716;2022-09-27T05:11:40;97386.72;;;11.42;82.01
25610;BME280;13479;49.044;8.716;2022-09-27T05:14:05;97401.13;;;11.48;81.69
25610;BME280;13479;49.044;8.716;2022-09-27T05:16:32;97418.72;;;11.49;81.67
25610;BME280;13479;49.044;8.716;2022-09-27T05:18:57;97433.31;;;11.53;81.41
25610;BME280;13479;49.044;8.716;2022-09-27T05:21:22;97433.66;;;11.50;81.43
25610;BME280;13479;49.044;8.716;2022-09-27T05:23:48;97437.50;;;11.48;81.62
25610;BME280;13479;49.044;8.716;2022-09-27T05:26:13;97438.50;;;11.47;81.61
25610;BME280;13479;49.044;8.716;2022-09-27T05:28:38;97455.19;;;11.32;81.35
25610;BME280;13479;49.044;8.716;2022-09-27T05:31:08;97442.44;;;11.27;82.01
25610;BME280;13479;49.044;8.716;2022-09-27T05:33:35;97441.91;;;11.32;82.06
25610;BME280;13479;49.044;8.716;2022-09-27T05:36:00;97466.13;;;11.37;81.60
25610;BME280;13479;49.044;8.716;2022-09-27T05:38:26;97436.59;;;11.32;82.25
25610;BME280;13479;49.044;8.716;2022-09-27T05:40:51;97442.56;;;11.34;82.44
25610;BME280;13479;49.044;8.716;2022-09-27T05:43:17;97444.56;;;11.32;82.65
25610;BME280;13479;49.044;8.716;2022-09-27T05:45:43;97455.84;;;11.34;82.77
25610;BME280;13479;49.044;8.716;2022-09-27T05:48:09;97451.53;;;11.33;82.94
25610;BME280;13479;49.044;8.716;2022-09-27T05:50:35;97452.63;;;11.47;84.66
25610;BME280;13479;49.044;8.716;2022-09-27T05:53:00;97480.31;;;11.53;84.42
25610;BME280;13479;49.044;8.716;2022-09-27T05:55:26;97515.47;;;11.63;83.18
25610;BME280;13479;49.044;8.716;2022-09-27T05:57:56;97499.47;;;11.71;83.47
25610;BME280;13479;49.044;8.716;2022-09-27T06:00:22;97508.94;;;11.89;82.62
25610;BME280;13479;49.044;8.716;2022-09-27T06:03:02;97524.72;;;11.99;80.32
25610;BME280;13479;49.044;8.716;2022-09-27T06:05:29;97507.22;;;12.04;80.31
25610;BME280;13479;49.044;8.716;2022-09-27T06:07:59;97494.84;;;12.12;79.51
25610;BME280;13479;49.044;8.716;2022-09-27T06:10:25;97469.25;;;12.11;80.06
25610;BME280;13479;49.044;8.716;2022-09-27T06:12:51;97481.75;;;12.25;79.01
25610;BME280;13479;49.044;8.716;2022-09-27T06:15:17;97454.72;;;12.36;79.62
25610;BME280;13479;49.044;8.716;2022-09-27T06:17:42;97469.78;;;12.44;79.35
25610;BME280;13479;49.044;8.716;2022-09-27T06:20:08;97492.81;;;12.52;77.67
25610;BME280;13479;49.044;8.716;2022-09-27T06:22:34;97440.22;;;12.54;79.21
25610;BME280;13479;49.044;8.716;2022-09-27T06:25:00;97486.75;;;12.58;77.50
25610;BME280;13479;49.044;8.716;2022-09-27T06:27:28;97472.97;;;12.70;76.73
25610;BME280;13479;49.044;8.716;2022-09-27T06:29:53;97481.81;;;12.70;76.11
25610;BME280;13479;49.044;8.716;2022-09-27T06:32:20;97470.97;;;12.72;75.65
25610;BME280;13479;49.044;8.716;2022-09-27T06:34:45;97472.06;;;12.77;75.07
25610;BME280;13479;49.044;8.716;2022-09-27T06:37:10;97461.22;;;12.79;74.20
25610;BME280;13479;49.044;8.716;2022-09-27T06:39:36;97429.09;;;12.80;75.33
25610;BME280;13479;49.044;8.716;2022-09-27T06:42:01;97456.38;;;12.82;74.13
25610;BME280;13479;49.044;8.716;2022-09-27T06:44:27;97458.19;;;12.82;73.86
25610;BME280;13479;49.044;8.716;2022-09-27T06:46:52;97436.63;;;12.77;74.80
25610;BME280;13479;49.044;8.716;2022-09-27T06:49:19;97439.78;;;12.65;74.39
25610;BME280;13479;49.044;8.716;2022-09-27T06:51:45;97459.78;;;12.61;74.09
25610;BME280;13479;49.044;8.716;2022-09-27T06:54:10;97481.63;;;12.57;73.08
25610;BME280;13479;49.044;8.716;2022-09-27T06:56:36;97409.75;;;12.57;75.58
25610;BME280;13479;49.044;8.716;2022-09-27T06:59:01;97373.69;;;12.54;75.98
25610;BME280;13479;49.044;8.716;2022-09-27T07:01:45;97428.09;;;12.51;74.90
25610;BME280;13479;49.044;8.716;2022-09-27T07:04:11;97411.75;;;12.55;76.01
25610;BME280;13479;49.044;8.716;2022-09-27T07:06:37;97461.78;;;12.59;73.70
25610;BME280;13479;49.044;8.716;2022-09-27T07:09:03;97476.84;;;12.52;74.23
25610;BME280;13479;49.044;8.716;2022-09-27T07:11:33;97420.31;;;12.50;76.24
25610;BME280;13479;49.044;8.716;2022-09-27T07:14:01;97416.25;;;12.39;75.98
25610;BME280;13479;49.044;8.716;2022-09-27T07:16:29;97480.84;;;12.33;74.14
25610;BME280;13479;49.044;8.716;2022-09-27T07:18:55;97449.28;;;12.45;76.28
25610;BME280;13479;49.044;8.716;2022-09-27T07:21:21;97448.56;;;12.51;75.58
25610;BME280;13479;49.044;8.716;2022-09-27T07:23:46;97480.97;;;12.55;74.93
25610;BME280;13479;49.044;8.716;2022-09-27T07:26:12;97505.78;;;12.70;74.61
25610;BME280;13479;49.044;8.716;2022-09-27T07:28:37;97534.13;;;12.78;73.62
25610;BME280;13479;49.044;8.716;2022-09-27T07:31:06;97554.44;;;12.94;72.85
25610;BME280;13479;49.044;8.716;2022-09-27T07:33:33;97571.34;;;13.01;71.33
25610;BME280;13479;49.044;8.716;2022-09-27T07:35:58;97545.50;;;13.02;70.80
25610;BME280;13479;49.044;8.716;2022-09-27T07:38:24;97447.78;;;13.02;72.97
25610;BME280;13479;49.044;8.716;2022-09-27T07:40:49;97488.97;;;13.00;71.67
25610;BME280;13479;49.044;8.716;2022-09-27T07:43:14;97506.03;;;13.05;72.23
25610;BME280;13479;49.044;8.716;2022-09-27T07:45:40;97537.91;;;13.13;70.91
25610;BME280;13479;49.044;8.716;2022-09-27T07:48:07;97522.72;;;13.14;70.98
25610;BME280;13479;49.044;8.716;2022-09-27T07:50:33;97490.19;;;13.34;72.02
25610;BME280;13479;49.044;8.716;2022-09-27T07:52:58;97588.88;;;13.55;68.64
25610;BME280;13479;49.044;8.716;2022-09-27T07:55:24;97501.94;;;13.76;70.91
25610;BME280;13479;49.044;8.716;2022-09-27T07:57:49;97580.75;;;14.00;67.63
25610;BME280;13479;49.044;8.716;2022-09-27T08:00:16;97557.50;;;14.16;67.48
25610;BME280;13479;49.044;8.716;2022-09-27T08:02:44;97552.63;;;14.19;66.85
25610;BME280;13479;49.044;8.716;2022-09-27T08:05:11;97575.69;;;14.27;64.94
25610;BME280;13479;49.044;8.716;2022-09-27T08:07:37;97487.41;;;14.29;66.50
25610;BME280;13479;49.044;8.716;2022-09-27T08:10:04;97535.28;;;14.37;65.93
25610;BME280;13479;49.044;8.716;2022-09-27T08:12:29;97532.19;;;14.62;64.96
25610;BME280;13479;49.044;8.716;2022-09-27T08:14:55;97524.50;;;14.74;64.60
25610;BME280;13479;49.044;8.716;2022-09-27T08:17:25;97570.06;;;15.01;63.35
25610;BME280;13479;49.044;8.716;2022-09-27T08:19:50;97577.59;;;15.19;61.61
25610;BME280;13479;49.044;8.716;2022-09-27T08:22:16;97549.59;;;15.14;61.85
25610;BME280;13479;49.044;8.716;2022-09-27T08:24:41;97518.56;;;15.13;62.27
25610;BME280;13479;49.044;8.716;2022-09-27T08:27:07;97524.50;;;15.16;61.52
25610;BME280;13479;49.044;8.716;2022-09-27T08:29:33;97496.25;;;15.41;62.45
25610;BME280;13479;49.044;8.716;2022-09-27T08:31:58;97518.06;;;15.52;61.77
25610;BME280;13479;49.044;8.716;2022-09-27T08:34:24;97518.94;;;15.59;60.90
25610;BME280;13479;49.044;8.716;2022-09-27T08:36:49;97529.63;;;15.66;59.83
25610;BME280;13479;49.044;8.716;2022-09-27T08:39:14;97475.53;;;15.64;61.02
25610;BME280;13479;49.044;8.716;2022-09-27T08:41:49;97525.91;;;15.60;59.58
25610;BME280;13479;49.044;8.716;2022-09-27T08:47:04;97447.47;;;15.39;60.34
25610;BME280;13479;49.044;8.716;2022-09-27T08:52:18;97507.34;;;15.45;60.03
25610;BME280;13479;49.044;8.716;2022-09-27T08:54:45;97466.63;;;15.43;61.29
25610;BME280;13479;49.044;8.716;2022-09-27T08:57:11;97497.72;;;15.51;59.83
25610;BME280;13479;49.044;8.716;2022-09-27T08:59:42;97518.63;;;16.56;58.58
25610;BME280;13479;49.044;8.716;2022-09-27T09:02:20;97587.28;;;18.34;54.22
25610;BME280;13479;49.044;8.716;2022-09-27T09:04:51;97584.16;;;19.87;49.88
25610;BME280;13479;49.044;8.716;2022-09-27T09:07:46;97585.03;;;20.12;48.52
25610;BME280;13479;49.044;8.716;2022-09-27T09:16:48;97595.03;;;20.65;44.88
25610;BME280;13479;49.044;8.716;2022-09-27T09:19:26;97586.41;;;21.11;43.51
25610;BME280;13479;49.044;8.716;2022-09-27T09:27:30;97573.97;;;21.10;44.11
25610;BME280;13479;49.044;8.716;2022-09-27T09:30:10;97577.47;;;20.87;42.77
25610;BME280;13479;49.044;8.716;2022-09-27T09:35:46;97601.22;;;23.16;38.46
25610;BME280;13479;49.044;8.716;2022-09-27T09:38:22;97608.50;;;23.16;38.60
25610;BME280;13479;49.044;8.716;2022-09-27T09:41:01;97607.28;;;22.09;39.96
25610;BME280;13479;49.044;8.716;2022-09-27T09:43:50;97576.50;;;21.28;41.92
25610;BME280;13479;49.044;8.716;2022-09-27T09:49:16;97504.53;;;20.93;42.35
25610;BME280;13479;49.044;8.716;2022-09-27T09:51:48;97510.38;;;20.66;42.23
25610;BME280;13479;49.044;8.716;2022-09-27T09:54:22;97487.97;;;20.18;43.29
25610;BME280;13479;49.044;8.716;2022-09-27T09:57:00;97467.56;;;19.68;43.88
25610;BME280;13479;49.044;8.716;2022-09-27T09:59:37;97451.72;;;19.18;45.06
25610;BME280;13479;49.044;8.716;2022-09-27T10:04:49;97405.97;;;18.25;47.50
25610;BME280;13479;49.044;8.716;2022-09-27T10:07:18;97421.19;;;17.80;47.26
25610;BME280;13479;49.044;8.716;2022-09-27T10:09:44;97391.63;;;17.62;48.33
25610;BME280;13479;49.044;8.716;2022-09-27T10:12:10;97392.25;;;17.25;50.34
25610;BME280;13479;49.044;8.716;2022-09-27T10:14:35;97407.09;;;16.82;51.71
25610;BME280;13479;49.044;8.716;2022-09-27T10:17:05;97407.84;;;16.17;54.29
25610;BME280;13479;49.044;8.716;2022-09-27T10:19:34;97401.69;;;15.69;56.12
25610;BME280;13479;49.044;8.716;2022-09-27T10:22:21;97388.84;;;15.24;58.09
25610;BME280;13479;49.044;8.716;2022-09-27T10:24:55;97392.22;;;14.85;59.30
25610;BME280;13479;49.044;8.716;2022-09-27T10:27:21;97389.59;;;14.56;60.70
25610;BME280;13479;49.044;8.716;2022-09-27T10:29:55;97364.16;;;14.18;61.29
25610;BME280;13479;49.044;8.716;2022-09-27T10:32:24;97374.63;;;13.92;63.11
25610;BME280;13479;49.044;8.716;2022-09-27T10:34:51;97385.66;;;13.82;65.18
25610;BME280;13479;49.044;8.716;2022-09-27T10:37:18;97401.78;;;13.95;66.00
25610;BME280;13479;49.044;8.716;2022-09-27T10:39:47;97409.31;;;14.20;65.68
25610;BME280;13479;49.044;8.716;2022-09-27T10:44:56;97429.50;;;15.06;64.57
25610;BME280;13479;49.044;8.716;2022-09-27T10:47:23;97554.66;;;15.38;60.71
25610;BME280;13479;49.044;8.716;2022-09-27T10:49:51;97559.00;;;15.46;59.76
25610;BME280;13479;49.044;8.716;2022-09-27T10:52:21;97552.22;;;15.50;59.61
25610;BME280;13479;49.044;8.716;2022-09-27T10:54:56;97540.72;;;15.49;59.93
25610;BME280;13479;49.044;8.716;2022-09-27T10:57:25;97497.47;;;15.39;60.61
25610;BME280;13479;49.044;8.716;2022-09-27T10:59:55;97455.88;;;15.23;62.08
25610;BME280;13479;49.044;8.716;2022-09-27T11:02:23;97451.28;;;15.03;61.94
25610;BME280;13479;49.044;8.716;2022-09-27T11:05:13;97447.03;;;14.67;62.70
25610;BME280;13479;49.044;8.716;2022-09-27T11:07:51;97429.59;;;14.14;63.59
25610;BME280;13479;49.044;8.716;2022-09-27T11:10:35;97419.56;;;13.66;64.78
25610;BME280;13479;49.044;8.716;2022-09-27T11:13:14;97382.31;;;13.29;67.52
25610;BME280;13479;49.044;8.716;2022-09-27T11:35:43;97467.13;;;11.83;69.93
25610;BME280;13479;49.044;8.716;2022-09-27T11:38:40;97476.78;;;11.84;70.65
25610;BME280;13479;49.044;8.716;2022-09-27T11:46:28;97507.78;;;11.68;71.07
25610;BME280;13479;49.044;8.716;2022-09-27T11:57:35;97508.25;;;11.49;71.49
25610;BME280;13479;49.044;8.716;2022-09-27T12:00:18;97499.31;;;11.41;72.21
25610;BME280;13479;49.044;8.716;2022-09-27T12:03:08;97500.47;;;11.39;72.06
25610;BME280;13479;49.044;8.716;2022-09-27T12:06:06;97503.84;;;11.33;72.03
25610;BME280;13479;49.044;8.716;2022-09-27T12:16:33;97609.69;;;12.39;69.32
25610;BME280;13479;49.044;8.716;2022-09-27T12:19:02;97556.03;;;12.50;70.29
25610;BME280;13479;49.044;8.716;2022-09-27T12:21:30;97572.03;;;12.80;69.12
25610;BME280;13479;49.044;8.716;2022-09-27T12:23:57;97577.47;;;13.02;67.65
25610;BME280;13479;49.044;8.716;2022-09-27T12:26:29;97558.28;;;13.21;67.64
25610;BME280;13479;49.044;8.716;2022-09-27T12:29:01;97550.28;;;13.51;66.37
25610;BME280;13479;49.044;8.716;2022-09-27T12:31:34;97526.09;;;13.53;65.71
25610;BME280;13479;49.044;8.716;2022-09-27T12:37:06;97492.03;;;13.18;64.68
25610;BME280;13479;49.044;8.716;2022-09-27T12:39:44;97482.88;;;13.06;65.45
25610;BME280;13479;49.044;8.716;2022-09-27T12:42:17;97486.91;;;13.02;65.15
25610;BME280;13479;49.044;8.716;2022-09-27T12:44:44;97481.59;;;13.02;65.17
25610;BME280;13479;49.044;8.716;2022-09-27T12:47:48;97470.19;;;13.08;65.67
25610;BME280;13479;49.044;8.716;2022-09-27T12:52:44;97421.88;;;13.48;66.37
25610;BME280;13479;49.044;8.716;2022-09-27T13:01:53;97510.22;;;13.44;64.30
25610;BME280;13479;49.044;8.716;2022-09-27T13:04:23;97485.09;;;13.54;65.28
25610;BME280;13479;49.044;8.716;2022-09-27T13:07:25;97499.00;;;13.71;64.38
25610;BME280;13479;49.044;8.716;2022-09-27T13:10:25;97486.06;;;13.89;64.59
25610;BME280;13479;49.044;8.716;2022-09-27T13:12:48;97506.53;;;14.11;64.05
25610;BME280;13479;49.044;8.716;2022-09-27T13:15:31;97498.44;;;14.26;63.82
25610;BME280;13479;49.044;8.716;2022-09-27T13:17:59;97509.91;;;14.48;63.43
25610;BME280;13479;49.044;8.716;2022-09-27T13:20:40;97502.59;;;14.57;63.38
25610;BME280;13479;49.044;8.716;2022-09-27T13:31:07;97478.16;;;14.60;62.85
25610;BME280;13479;49.044;8.716;2022-09-27T13:33:40;97464.81;;;14.60;63.16
25610;BME280;13479;49.044;8.716;2022-09-27T13:36:27;97487.72;;;14.76;62.12
25610;BME280;13479;49.044;8.716;2022-09-27T13:46:59;97478.09;;;15.30;60.74
25610;BME280;13479;49.044;8.716;2022-09-27T13:49:35;97490.84;;;15.28;60.37
25610;BME280;13479;49.044;8.716;2022-09-27T13:52:22;97452.16;;;15.17;60.48
25610;BME280;13479;49.044;8.716;2022-09-27T13:54:51;97417.78;;;15.07;61.67
25610;BME280;13479;49.044;8.716;2022-09-27T14:00:05;97429.59;;;15.33;60.55
25610;BME280;13479;49.044;8.716;2022-09-27T14:02:44;97450.97;;;15.33;60.42
25610;BME280;13479;49.044;8.716;2022-09-27T14:05:19;97460.03;;;15.32;60.00
25610;BME280;13479;49.044;8.716;2022-09-27T14:07:48;97455.06;;;15.29;59.86
25610;BME280;13479;49.044;8.716;2022-09-27T14:10:16;97433.25;;;15.19;60.83
25610;BME280;13479;49.044;8.716;2022-09-27T14:12:43;97382.66;;;15.10;61.80
25610;BME280;13479;49.044;8.716;2022-09-27T14:15:17;97355.50;;;15.00;61.94
25610;BME280;13479;49.044;8.716;2022-09-27T14:17:43;97346.16;;;14.69;62.46
25610;BME280;13479;49.044;8.716;2022-09-27T14:20:28;97322.75;;;14.36;63.53
25610;BME280;13479;49.044;8.716;2022-09-27T14:22:56;97305.75;;;14.02;65.67
25610;BME280;13479;49.044;8.716;2022-09-27T14:25:21;97325.72;;;13.78;67.13
25610;BME280;13479;49.044;8.716;2022-09-27T14:27:46;97336.22;;;13.57;68.23
25610;BME280;13479;49.044;8.716;2022-09-27T14:30:17;97370.72;;;13.59;69.07
25610;BME280;13479;49.044;8.716;2022-09-27T14:32:51;97413.03;;;13.69;68.24
25610;BME280;13479;49.044;8.716;2022-09-27T14:35:25;97425.63;;;13.53;67.87
25610;BME280;13479;49.044;8.716;2022-09-27T14:38:13;97418.88;;;13.57;67.48
25610;BME280;13479;49.044;8.716;2022-09-27T16:20:31;97435.59;;;11.80;69.91
25610;BME280;13479;49.044;8.716;2022-09-27T16:22:58;97433.34;;;11.68;70.73
25610;BME280;13479;49.044;8.716;2022-09-27T16:25:24;97480.66;;;11.73;69.45
25610;BME280;13479;49.044;8.716;2022-09-27T16:27:50;97480.25;;;11.61;69.83
25610;BME280;13479;49.044;8.716;2022-09-27T16:30:17;97455.75;;;11.51;70.49
25610;BME280;13479;49.044;8.716;2022-09-27T16:32:45;97464.38;;;11.53;70.93
25610;BME280;13479;49.044;8.716;2022-09-27T16:35:12;97471.97;;;11.56;70.90
25610;BME280;13479;49.044;8.716;2022-09-27T16:37:38;97494.91;;;11.57;70.76
25610;BME280;13479;49.044;8.716;2022-09-27T16:40:05;97504.25;;;11.53;70.79
25610;BME280;13479;49.044;8.716;2022-09-27T16:42:32;97493.34;;;11.39;71.21
25610;BME280;13479;49.044;8.716;2022-09-27T16:44:57;97483.28;;;11.26;71.84
25610;BME280;13479;49.044;8.716;2022-09-27T16:47:23;97494.41;;;11.30;71.48
25610;BME280;13479;49.044;8.716;2022-09-27T16:49:48;97510.34;;;11.30;71.42
25610;BME280;13479;49.044;8.716;2022-09-27T16:52:32;97527.31;;;11.21;71.29
25610;BME280;13479;49.044;8.716;2022-09-27T16:54:58;97511.75;;;11.09;71.80
25610;BME280;13479;49.044;8.716;2022-09-27T16:57:24;97509.78;;;11.03;72.02
25610;BME280;13479;49.044;8.716;2022-09-27T16:59:52;97516.63;;;10.97;72.47
25610;BME280;13479;49.044;8.716;2022-09-27T17:02:17;97516.28;;;10.92;72.68
25610;BME280;13479;49.044;8.716;2022-09-27T17:04:43;97527.75;;;10.93;73.51
25610;BME280;13479;49.044;8.716;2022-09-27T17:07:08;97548.16;;;10.92;74.24
25610;BME280;13479;49.044;8.716;2022-09-27T17:09:33;97562.28;;;10.93;74.47
25610;BME280;13479;49.044;8.716;2022-09-27T17:11:59;97570.22;;;11.01;74.71
25610;BME280;13479;49.044;8.716;2022-09-27T17:14:24;97580.50;;;11.04;74.86
25610;BME280;13479;49.044;8.716;2022-09-27T17:16:51;97588.13;;;10.99;75.04
25610;BME280;13479;49.044;8.716;2022-09-27T17:19:17;97604.06;;;11.07;74.69
25610;BME280;13479;49.044;8.716;2022-09-27T17:21:43;97603.41;;;11.05;74.40
25610;BME280;13479;49.044;8.716;2022-09-27T17:24:09;97609.38;;;11.07;74.14
25610;BME280;13479;49.044;8.716;2022-09-27T17:26:35;97624.31;;;11.08;73.59
25610;BME280;13479;49.044;8.716;2022-09-27T17:29:00;97645.56;;;11.08;72.91
25610;BME280;13479;49.044;8.716;2022-09-27T17:31:27;97634.13;;;11.00;73.02
25610;BME280;13479;49.044;8.716;2022-09-27T17:33:53;97628.63;;;11.01;72.68
25610;BME280;13479;49.044;8.716;2022-09-27T17:36:21;97642.25;;;11.06;71.87
25610;BME280;13479;49.044;8.716;2022-09-27T17:38:48;97602.75;;;10.87;72.56
25610;BME280;13479;49.044;8.716;2022-09-27T17:41:16;97562.81;;;10.80;73.55
25610;BME280;13479;49.044;8.716;2022-09-27T17:43:43;97568.63;;;10.84;72.89
25610;BME280;13479;49.044;8.716;2022-09-27T17:46:17;97559.84;;;10.75;73.50
25610;BME280;13479;49.044;8.716;2022-09-27T17:48:43;97551.41;;;10.63;73.61
25610;BME280;13479;49.044;8.716;2022-09-27T17:51:26;97544.78;;;10.42;74.34
25610;BME280;13479;49.044;8.716;2022-09-27T17:53:52;97547.75;;;10.31;74.84
25610;BME280;13479;49.044;8.716;2022-09-27T17:56:17;97556.56;;;10.23;75.51
25610;BME280;13479;49.044;8.716;2022-09-27T17:58:47;97571.13;;;10.19;75.50
25610;BME280;13479;49.044;8.716;2022-09-27T18:01:14;97590.00;;;10.16;75.57
25610;BME280;13479;49.044;8.716;2022-09-27T18:03:39;97594.16;;;10.10;75.75
25610;BME280;13479;49.044;8.716;2022-09-27T18:06:05;97576.09;;;9.97;76.09
25610;BME280;13479;49.044;8.716;2022-09-27T18:08:31;97589.03;;;10.00;76.30
25610;BME280;13479;49.044;8.716;2022-09-27T18:11:06;97606.06;;;9.98;76.09
25610;BME280;13479;49.044;8.716;2022-09-27T18:13:32;97593.78;;;9.80;76.74
25610;BME280;13479;49.044;8.716;2022-09-27T18:16:11;97604.72;;;9.77;77.08
25610;BME280;13479;49.044;8.716;2022-09-27T18:18:38;97613.66;;;9.76;76.96
25610;BME280;13479;49.044;8.716;2022-09-27T18:21:05;97622.56;;;9.67;77.09
25610;BME280;13479;49.044;8.716;2022-09-27T18:23:31;97615.97;;;9.71;77.28
25610;BME280;13479;49.044;8.716;2022-09-27T18:25:57;97624.88;;;9.62;77.15
25610;BME280;13479;49.044;8.716;2022-09-27T18:28:27;97626.47;;;9.46;77.14
25610;BME280;13479;49.044;8.716;2022-09-27T18:30:54;97607.75;;;9.39;77.62
25610;BME280;13479;49.044;8.716;2022-09-27T18:33:19;97624.13;;;9.43;77.36
25610;BME280;13479;49.044;8.716;2022-09-27T18:35:45;97610.88;;;9.35;77.47
25610;BME280;13479;49.044;8.716;2022-09-27T18:38:11;97617.84;;;9.36;77.84
25610;BME280;13479;49.044;8.716;2022-09-27T18:40:36;97603.22;;;9.23;78.30
25610;BME280;13479;49.044;8.716;2022-09-27T18:43:01;97626.41;;;9.30;78.57
25610;BME280;13479;49.044;8.716;2022-09-27T18:45:27;97626.38;;;9.21;78.56
25610;BME280;13479;49.044;8.716;2022-09-27T18:47:52;97635.28;;;9.20;78.75
25610;BME280;13479;49.044;8.716;2022-09-27T18:50:17;97637.22;;;9.10;79.17
25610;BME280;13479;49.044;8.716;2022-09-27T18:52:42;97637.19;;;9.02;79.88
25610;BME280;13479;49.044;8.716;2022-09-27T18:55:08;97655.53;;;9.03;80.02
25610;BME280;13479;49.044;8.716;2022-09-27T18:57:33;97660.31;;;9.00;80.21
25610;BME280;13479;49.044;8.716;2022-09-27T19:00:02;97664.44;;;8.94;80.49
25610;BME280;13479;49.044;8.716;2022-09-27T19:02:28;97676.38;;;8.98;80.00
25610;BME280;13479;49.044;8.716;2022-09-27T19:04:53;97683.16;;;9.01;80.09
25610;BME280;13479;49.044;8.716;2022-09-27T19:07:19;97677.19;;;8.99;80.10
25610;BME280;13479;49.044;8.716;2022-09-27T19:09:44;97671.22;;;8.96;80.67
25610;BME280;13479;49.044;8.716;2022-09-27T19:12:09;97682.19;;;9.02;80.20
25610;BME280;13479;49.044;8.716;2022-09-27T19:14:34;97692.09;;;9.00;79.80
25610;BME280;13479;49.044;8.716;2022-09-27T19:17:00;97707.03;;;9.09;79.70
25610;BME280;13479;49.044;8.716;2022-09-27T19:19:25;97707.22;;;9.07;79.50
25610;BME280;13479;49.044;8.716;2022-09-27T19:21:50;97698.06;;;9.02;79.60
25610;BME280;13479;49.044;8.716;2022-09-27T19:24:16;97685.81;;;9.01;79.72
25610;BME280;13479;49.044;8.716;2022-09-27T19:26:43;97682.41;;;9.08;79.20
25610;BME280;13479;49.044;8.716;2022-09-27T19:29:09;97692.13;;;9.08;78.99
25610;BME280;13479;49.044;8.716;2022-09-27T19:31:34;97699.78;;;9.11;78.95
25610;BME280;13479;49.044;8.716;2022-09-27T19:33:59;97697.50;;;9.16;78.79
25610;BME280;13479;49.044;8.716;2022-09-27T19:36:25;97690.75;;;9.22;78.60
25610;BME280;13479;49.044;8.716;2022-09-27T19:38:50;97695.59;;;9.26;78.07
25610;BME280;13479;49.044;8.716;2022-09-27T19:41:16;97679.22;;;9.31;78.25
25610;BME280;13479;49.044;8.716;2022-09-27T19:43:42;97678.25;;;9.40;77.95
25610;BME280;13479;49.044;8.716;2022-09-27T19:46:16;97681.47;;;9.52;77.38
25610;BME280;13479;49.044;8.716;2022-09-27T19:48:43;97656.97;;;9.50;77.39
25610;BME280;13479;49.044;8.716;2022-09-27T19:51:14;97665.13;;;9.65;76.78
25610;BME280;13479;49.044;8.716;2022-09-27T19:53:40;97654.38;;;9.67;76.12
25610;BME280;13479;49.044;8.716;2022-09-27T19:56:07;97647.25;;;9.67;75.56
25610;BME280;13479;49.044;8.716;2022-09-27T19:58:34;97628.53;;;9.69;75.26
25610;BME280;13479;49.044;8.716;2022-09-27T20:03:28;97609.34;;;9.75;74.44
25610;BME280;13479;49.044;8.716;2022-09-27T20:05:54;97603.22;;;9.74;74.11
25610;BME280;13479;49.044;8.716;2022-09-27T20:08:20;97598.59;;;9.77;73.90
25610;BME280;13479;49.044;8.716;2022-09-27T20:10:57;97594.47;;;9.82;73.43
25610;BME280;13479;49.044;8.716;2022-09-27T20:13:24;97589.31;;;9.81;73.02
25610;BME280;13479;49.044;8.716;2022-09-27T20:15:50;97566.28;;;9.73;73.33
25610;BME280;13479;49.044;8.716;2022-09-27T20:18:15;97565.63;;;9.71;73.06
25610;BME280;13479;49.044;8.716;2022-09-27T20:20:41;97553.66;;;9.58;73.24
25610;BME280;13479;49.044;8.716;2022-09-27T20:23:06;97539.91;;;9.55;73.32
25610;BME280;13479;49.044;8.716;2022-09-27T20:25:31;97537.59;;;9.52;73.28
25610;BME280;13479;49.044;8.716;2022-09-27T20:27:57;97550.53;;;9.63;73.04
25610;BME280;13479;49.044;8.716;2022-09-27T20:30:23;97536.13;;;9.57;73.10
25610;BME280;13479;49.044;8.716;2022-09-27T20:32:50;97545.72;;;9.58;73.32
25610;BME280;13479;49.044;8.716;2022-09-27T20:35:36;97534.44;;;9.56;73.56
25610;BME280;13479;49.044;8.716;2022-09-27T20:38:01;97513.94;;;9.58;73.67
25610;BME280;13479;49.044;8.716;2022-09-27T20:40:27;97513.94;;;9.67;73.82
25610;BME280;13479;49.044;8.716;2022-09-27T20:42:53;97529.19;;;9.73;73.60
25610;BME280;13479;49.044;8.716;2022-09-27T20:45:18;97538.47;;;9.85;73.13
25610;BME280;13479;49.044;8.716;2022-09-27T20:47:43;97579.91;;;10.03;72.08
25610;BME280;13479;49.044;8.716;2022-09-27T20:50:09;97565.31;;;9.99;72.18